createdAt,value
2022-10-17T05:04:00.305Z,10.10
2022-10-17T05:06:30.302Z,12.52
2022-10-17T05:09:15.855Z,11.30
2022-10-17T05:11:43.593Z,11.43
2022-10-17T05:14:11.903Z,10.70
2022-10-17T05:16:38.771Z,10.10
2022-10-17T05:19:05.719Z,11.38
2022-10-17T05:21:39.649Z,11.75
2022-10-17T05:24:08.511Z,10.93
2022-10-17T05:26:35.756Z,11.00
2022-10-17T05:29:06.209Z,10.70
2022-10-17T05:31:37.557Z,11.68
2022-10-17T05:34:09.016Z,9.57
2022-10-17T05:36:38.577Z,10.98
2022-10-17T05:39:06.235Z,9.90
2022-10-17T05:41:34.744Z,10.02
2022-10-17T05:44:04.669Z,10.75
2022-10-17T05:46:45.284Z,10.57
2022-10-17T05:49:19.609Z,10.77
2022-10-17T05:51:52.432Z,9.83
2022-10-17T05:54:19.369Z,10.20
2022-10-17T05:56:46.375Z,10.65
2022-10-17T05:59:16.055Z,9.75
2022-10-17T06:01:57.320Z,10.55
2022-10-17T06:04:24.310Z,10.23
2022-10-17T06:06:51.431Z,10.98
2022-10-17T06:09:18.249Z,11.48
2022-10-17T06:11:48.252Z,10.75
2022-10-17T06:14:15.937Z,10.90
2022-10-17T06:16:43.712Z,11.33
2022-10-17T06:19:11.637Z,11.13
2022-10-17T06:21:39.014Z,11.63
2022-10-17T06:24:20.151Z,10.50
2022-10-17T06:26:47.808Z,12.32
2022-10-17T06:29:16.176Z,11.07
2022-10-17T06:31:47.052Z,10.40
2022-10-17T06:34:14.263Z,12.35
2022-10-17T06:36:41.566Z,11.23
2022-10-17T06:39:13.324Z,12.00
2022-10-17T06:41:52.385Z,12.23
2022-10-17T06:44:19.968Z,12.18
2022-10-17T06:46:57.914Z,11.88
2022-10-17T06:49:25.114Z,11.40
2022-10-17T06:51:58.883Z,12.07
2022-10-17T06:54:34.058Z,11.50
2022-10-17T06:57:07.861Z,12.10
2022-10-17T07:00:02.854Z,12.38
2022-10-17T07:02:51.551Z,11.30
2022-10-17T07:05:19.581Z,11.52
2022-10-17T07:07:48.536Z,11.17
2022-10-17T07:10:18.596Z,10.88
2022-10-17T07:12:45.976Z,11.32
2022-10-17T07:15:13.449Z,10.07
2022-10-17T07:17:40.469Z,11.02
2022-10-17T07:20:07.982Z,8.83
2022-10-17T07:22:36.933Z,9.60
2022-10-17T07:25:04.559Z,8.85
2022-10-17T07:27:43.189Z,9.05
2022-10-17T07:30:11.457Z,8.15
2022-10-17T07:32:58.345Z,7.70
2022-10-17T07:35:25.714Z,9.55
2022-10-17T07:37:52.488Z,8.40
2022-10-17T07:40:20.786Z,7.32
2022-10-17T07:42:47.971Z,8.45
2022-10-17T07:45:15.852Z,7.93
2022-10-17T07:47:44.005Z,8.27
2022-10-17T07:50:13.926Z,8.25
2022-10-17T07:52:43.310Z,8.10
2022-10-17T07:55:13.012Z,9.45
2022-10-17T07:57:40.406Z,8.83
2022-10-17T08:00:10.648Z,9.55
2022-10-17T08:02:41.466Z,9.07
2022-10-17T08:05:10.891Z,9.02
2022-10-17T08:07:37.863Z,10.68
2022-10-17T08:10:05.534Z,8.63
2022-10-17T08:12:34.398Z,9.55
2022-10-17T08:15:01.855Z,10.90
2022-10-17T08:17:29.206Z,10.02
2022-10-17T08:19:55.989Z,10.10
2022-10-17T08:22:25.343Z,10.43
2022-10-17T08:24:54.963Z,9.60
2022-10-17T08:27:24.939Z,9.73
2022-10-17T08:29:53.517Z,11.50
2022-10-17T08:32:22.367Z,10.48
2022-10-17T08:34:49.376Z,10.90
2022-10-17T08:37:16.282Z,9.57
2022-10-17T08:39:43.817Z,11.40
2022-10-17T08:42:44.554Z,11.35
2022-10-17T08:45:45.927Z,12.23
2022-10-17T08:48:17.035Z,12.30
2022-10-17T08:51:00.692Z,13.27
2022-10-17T08:53:36.985Z,14.10
2022-10-17T08:56:55.320Z,13.02
2022-10-17T08:59:30.033Z,13.77
2022-10-17T09:02:44.535Z,13.23
2022-10-17T09:05:14.412Z,13.38
2022-10-17T09:08:04.290Z,14.40
2022-10-17T09:10:38.045Z,12.82
2022-10-17T09:13:27.013Z,13.45
2022-10-17T09:16:14.976Z,11.50
2022-10-17T09:23:23.974Z,12.93
2022-10-17T09:25:58.213Z,12.70
2022-10-17T09:28:33.101Z,14.90
2022-10-17T09:31:12.854Z,13.63
2022-10-17T09:34:00.473Z,14.15
2022-10-17T09:36:35.563Z,13.73
2022-10-17T09:39:21.487Z,14.93
2022-10-17T09:41:55.532Z,14.68
2022-10-17T09:44:29.453Z,16.50
2022-10-17T09:47:16.821Z,14.38
2022-10-17T09:49:46.710Z,13.45
2022-10-17T09:52:18.234Z,13.52
2022-10-17T09:54:51.512Z,14.93
2022-10-17T09:57:20.517Z,14.87
2022-10-17T09:59:57.597Z,14.18
2022-10-17T10:02:26.009Z,14.70
2022-10-17T10:05:04.545Z,15.00
2022-10-17T10:07:36.170Z,15.10
2022-10-17T10:10:04.926Z,13.70
2022-10-17T10:12:35.308Z,12.18
2022-10-17T10:15:02.723Z,12.82
2022-10-17T10:17:44.372Z,12.05
2022-10-17T10:20:32.006Z,11.77
2022-10-17T10:23:17.254Z,11.97
2022-10-17T10:26:05.354Z,12.40
2022-10-17T10:28:34.880Z,12.57
2022-10-17T10:31:07.817Z,11.98
2022-10-17T10:33:46.961Z,12.90
2022-10-17T10:36:16.652Z,11.30
2022-10-17T10:38:53.125Z,11.95
2022-10-17T10:41:20.127Z,12.25
2022-10-17T10:43:50.086Z,11.82
2022-10-17T10:46:16.971Z,12.15
2022-10-17T10:48:59.793Z,13.10
2022-10-17T10:51:37.928Z,12.68
2022-10-17T10:54:20.230Z,12.82
2022-10-17T10:56:53.340Z,11.35
2022-10-17T10:59:26.730Z,12.55
2022-10-17T11:02:17.664Z,10.83
2022-10-17T11:04:59.746Z,11.00
2022-10-17T11:07:43.555Z,11.90
2022-10-17T11:10:30.693Z,11.98
2022-10-17T11:13:16.969Z,9.75
2022-10-17T11:16:14.434Z,11.73
2022-10-17T11:18:47.310Z,10.68
2022-10-17T11:24:25.723Z,12.27
2022-10-17T11:27:00.809Z,12.98
2022-10-17T11:29:39.434Z,11.80
2022-10-17T11:32:19.679Z,12.75
2022-10-17T11:34:51.549Z,14.20
2022-10-17T11:37:26.720Z,12.10
2022-10-17T11:40:02.234Z,12.40
2022-10-17T11:42:35.713Z,11.70
2022-10-17T11:45:09.093Z,10.32
2022-10-17T11:47:46.502Z,11.40
2022-10-17T11:53:27.439Z,10.60
2022-10-17T11:55:57.879Z,12.07
2022-10-17T12:01:14.683Z,11.98
2022-10-17T12:04:06.177Z,10.60
2022-10-17T12:07:14.077Z,9.85
2022-10-17T12:10:07.033Z,10.70
2022-10-17T12:12:35.443Z,11.90
2022-10-17T12:15:23.342Z,11.48
2022-10-17T12:17:56.461Z,11.85
2022-10-17T12:20:26.306Z,11.80
2022-10-17T12:23:13.483Z,13.43
2022-10-17T12:25:58.411Z,11.75
2022-10-17T12:28:41.168Z,12.90
2022-10-17T12:31:23.327Z,10.52
2022-10-17T12:33:59.145Z,12.15
2022-10-17T12:36:26.137Z,11.27
2022-10-17T12:39:01.824Z,11.48
2022-10-17T12:41:41.014Z,11.80
2022-10-17T12:44:14.506Z,11.32
2022-10-17T12:46:44.206Z,12.50
2022-10-17T12:49:39.656Z,12.13
2022-10-17T12:52:31.453Z,14.23
2022-10-17T12:55:18.304Z,15.57
2022-10-17T12:58:01.288Z,13.02
2022-10-17T13:01:05.309Z,13.65
2022-10-17T13:03:45.703Z,13.10
2022-10-17T13:06:22.034Z,14.85
2022-10-17T13:09:01.026Z,14.27
2022-10-17T13:11:32.422Z,11.98
2022-10-17T13:14:02.148Z,12.43
2022-10-17T13:16:41.189Z,12.73
2022-10-17T13:19:25.014Z,12.63
2022-10-17T13:22:16.184Z,11.95
2022-10-17T13:24:43.490Z,10.52
2022-10-17T13:27:31.902Z,11.20
2022-10-17T13:30:01.706Z,9.90
2022-10-17T13:32:38.713Z,10.18
2022-10-17T13:35:55.334Z,10.25
2022-10-17T13:40:50.717Z,10.65
2022-10-17T13:43:21.061Z,11.43
2022-10-17T13:45:58.101Z,9.55
2022-10-17T13:48:30.615Z,10.70
2022-10-17T13:51:03.886Z,8.85
2022-10-17T13:53:35.268Z,8.73
2022-10-17T13:56:27.832Z,7.80
2022-10-17T13:59:08.075Z,9.00
2022-10-17T14:01:38.592Z,9.82
2022-10-17T14:04:11.638Z,9.68
2022-10-17T14:06:49.365Z,10.23
2022-10-17T14:09:23.421Z,9.47
2022-10-17T14:12:15.521Z,8.15
2022-10-17T14:15:09.328Z,9.80
2022-10-17T14:17:38.570Z,9.55
2022-10-17T14:20:47.844Z,9.18
2022-10-17T14:23:22.431Z,8.27
2022-10-17T14:25:44.087Z,7.57
2022-10-17T14:28:20.802Z,7.60
2022-10-17T14:30:57.161Z,7.40
2022-10-17T14:33:28.372Z,8.38
2022-10-17T14:35:58.150Z,8.00
2022-10-17T14:38:25.736Z,7.45
2022-10-17T14:41:23.611Z,8.00
2022-10-17T14:43:57.256Z,8.00
2022-10-17T14:46:24.683Z,7.05
2022-10-17T14:48:58.852Z,6.33
2022-10-17T14:51:26.167Z,6.32
2022-10-17T14:54:19.409Z,7.50
2022-10-17T14:56:54.551Z,6.15
2022-10-17T14:59:52.974Z,7.32
2022-10-17T15:02:14.445Z,7.87
2022-10-17T15:04:41.993Z,6.55
2022-10-17T15:07:15.552Z,6.63
2022-10-17T15:09:44.269Z,7.75
2022-10-17T15:12:21.415Z,7.13
2022-10-17T15:14:48.789Z,6.07
2022-10-17T15:17:24.376Z,7.45
2022-10-17T15:19:58.932Z,6.80
2022-10-17T15:22:26.212Z,9.75
2022-10-17T15:24:53.330Z,9.75
2022-10-17T15:27:23.272Z,10.80
2022-10-17T15:29:51.796Z,8.05
2022-10-17T15:32:19.343Z,8.85
2022-10-17T15:34:46.405Z,6.70
2022-10-17T15:37:24.647Z,7.93
2022-10-17T15:39:54.762Z,6.93
2022-10-17T15:42:31.435Z,7.03
2022-10-17T15:44:58.730Z,6.65
2022-10-17T15:47:34.187Z,6.55
2022-10-17T15:50:02.090Z,5.95
2022-10-17T15:52:29.322Z,5.50
2022-10-17T15:54:58.515Z,5.13
2022-10-17T15:57:31.333Z,5.25
2022-10-17T16:00:00.711Z,5.22
2022-10-17T16:02:28.080Z,5.57
2022-10-17T16:04:55.195Z,5.10
2022-10-17T16:07:22.443Z,4.75
2022-10-17T16:09:49.260Z,10.15
2022-10-17T16:12:29.093Z,17.85
2022-10-17T16:14:58.626Z,17.25
2022-10-17T16:17:25.593Z,13.13
2022-10-17T16:19:52.762Z,9.30
2022-10-17T16:22:32.672Z,8.60
2022-10-17T16:25:07.691Z,7.75
2022-10-17T16:27:35.714Z,8.10
2022-10-17T16:30:07.224Z,8.60
2022-10-17T16:32:34.190Z,7.68
2022-10-17T16:35:01.548Z,7.20
2022-10-17T16:37:28.584Z,7.10
2022-10-17T16:39:55.600Z,7.82
2022-10-17T16:42:25.044Z,7.57
2022-10-17T16:44:54.777Z,7.25
2022-10-17T16:47:21.818Z,7.63
2022-10-17T16:49:48.895Z,8.07
2022-10-17T16:52:15.717Z,8.35
2022-10-17T16:54:42.581Z,9.37
2022-10-17T16:57:09.928Z,9.00
2022-10-17T16:59:37.170Z,10.02
2022-10-17T17:02:04.466Z,9.00
2022-10-17T17:04:31.730Z,10.80
2022-10-17T17:06:58.910Z,8.90
2022-10-17T17:09:25.897Z,9.88
2022-10-17T17:11:52.902Z,9.73
2022-10-17T17:14:19.931Z,9.75
2022-10-17T17:16:46.866Z,10.13
2022-10-17T17:19:20.380Z,10.77
2022-10-17T17:21:51.095Z,9.80
2022-10-17T17:24:22.864Z,10.90
2022-10-17T17:26:55.291Z,11.88
2022-10-17T17:29:23.635Z,11.65
2022-10-17T17:31:51.099Z,11.60
2022-10-17T17:34:18.465Z,11.85
2022-10-17T17:36:45.951Z,13.23
2022-10-17T17:39:14.453Z,13.52
2022-10-17T17:41:42.783Z,13.40
2022-10-17T17:44:16.439Z,13.57
2022-10-17T17:46:44.592Z,12.27
2022-10-17T17:49:12.857Z,13.50
2022-10-17T17:51:41.602Z,13.00
2022-10-17T17:54:11.639Z,12.43
2022-10-17T17:56:39.422Z,12.77
2022-10-17T17:59:07.558Z,12.80
2022-10-17T18:01:39.118Z,13.50
2022-10-17T18:04:08.971Z,12.75
2022-10-17T18:06:38.196Z,13.73
2022-10-17T18:09:26.331Z,13.60
2022-10-17T18:11:53.715Z,14.10
2022-10-17T18:14:24.032Z,14.10
2022-10-17T18:16:53.408Z,13.70
2022-10-17T18:19:20.671Z,15.30
2022-10-17T18:21:48.965Z,15.00
2022-10-17T18:24:17.043Z,14.73
2022-10-17T18:26:44.398Z,14.82
2022-10-17T18:29:15.359Z,15.35
2022-10-17T18:31:43.238Z,15.27
2022-10-17T18:34:13.659Z,14.07
2022-10-17T18:36:40.753Z,14.52
2022-10-17T18:39:08.186Z,14.52
2022-10-17T18:41:35.591Z,14.75
2022-10-17T18:44:05.442Z,14.45
2022-10-17T18:46:40.886Z,14.30
2022-10-17T18:49:10.233Z,15.32
2022-10-17T18:51:41.176Z,15.23
2022-10-17T18:54:22.225Z,16.10
2022-10-17T18:56:54.110Z,17.23
2022-10-17T18:59:21.803Z,15.30
2022-10-17T19:01:49.207Z,15.98
2022-10-17T19:04:16.492Z,16.75
2022-10-17T19:06:43.920Z,17.48
2022-10-17T19:09:14.314Z,19.48
2022-10-17T19:11:42.257Z,19.00
2022-10-17T19:14:14.767Z,19.33
2022-10-17T19:16:45.342Z,19.15
2022-10-17T19:19:20.233Z,18.75
2022-10-17T19:21:47.470Z,20.35
2022-10-17T19:24:20.143Z,18.70
2022-10-17T19:26:50.528Z,18.48
2022-10-17T19:29:18.785Z,21.17
2022-10-17T19:31:46.505Z,18.23
2022-10-17T19:34:34.653Z,21.00
2022-10-17T19:37:04.562Z,21.67
2022-10-17T19:39:31.729Z,18.00
2022-10-17T19:42:05.897Z,21.58
2022-10-17T19:44:35.368Z,18.65
2022-10-17T19:47:02.654Z,21.10
2022-10-17T19:49:30.006Z,22.03
2022-10-17T19:51:57.062Z,20.77
2022-10-17T19:54:24.266Z,23.48
2022-10-17T19:56:51.321Z,20.50
2022-10-17T19:59:18.951Z,22.05
2022-10-17T20:01:46.496Z,20.87
2022-10-17T20:04:14.693Z,18.48
2022-10-17T20:06:42.372Z,21.23
2022-10-17T20:09:13.965Z,19.88
2022-10-17T20:11:44.150Z,21.60
2022-10-17T20:14:13.599Z,18.67
2022-10-17T20:16:40.980Z,20.90
2022-10-17T20:19:10.550Z,21.38
2022-10-17T20:21:39.737Z,20.45
2022-10-17T20:24:08.762Z,22.58
2022-10-17T20:26:39.169Z,20.73
2022-10-17T20:29:15.803Z,20.50
2022-10-17T20:31:44.619Z,21.10
2022-10-17T20:34:16.579Z,20.95
2022-10-17T20:36:44.095Z,21.48
2022-10-17T20:39:13.453Z,20.17
2022-10-17T20:41:41.031Z,21.17
2022-10-17T20:44:08.382Z,21.33
2022-10-17T20:46:37.536Z,20.35
2022-10-17T20:49:08.816Z,20.92
2022-10-17T20:51:36.265Z,18.97
2022-10-17T20:54:04.378Z,20.15
2022-10-17T20:56:33.491Z,21.20
2022-10-17T20:59:03.375Z,20.77
2022-10-17T21:01:32.127Z,20.20
2022-10-17T21:04:10.624Z,19.87
2022-10-17T21:06:51.342Z,20.75
2022-10-17T21:09:18.361Z,20.42
2022-10-17T21:11:45.262Z,20.70
2022-10-17T21:14:12.476Z,20.15
2022-10-17T21:16:41.383Z,20.23
2022-10-17T21:19:09.686Z,21.10
2022-10-17T21:21:38.647Z,20.85
2022-10-17T21:24:09.228Z,19.92
2022-10-17T21:26:37.376Z,21.50
2022-10-17T21:29:05.998Z,17.90
2022-10-17T21:31:35.385Z,18.98
2022-10-17T21:34:07.202Z,19.75
2022-10-17T21:36:34.301Z,20.45
2022-10-17T21:39:01.606Z,19.95
2022-10-17T21:41:30.219Z,19.80
2022-10-17T21:44:11.903Z,19.63
2022-10-17T21:46:38.944Z,22.13
2022-10-17T21:49:05.897Z,22.33
2022-10-17T21:51:32.961Z,23.13
2022-10-17T21:54:00.033Z,22.17
2022-10-17T21:56:29.830Z,21.98
2022-10-17T21:59:00.016Z,22.55
2022-10-17T22:01:32.817Z,23.67
2022-10-17T22:04:02.288Z,23.00
2022-10-17T22:06:40.255Z,21.80
2022-10-17T22:09:15.290Z,23.00
2022-10-17T22:11:46.740Z,23.10
2022-10-17T22:14:16.796Z,23.85
2022-10-17T22:16:45.348Z,26.05
2022-10-17T22:19:14.037Z,22.00
2022-10-17T22:21:41.278Z,23.02
2022-10-17T22:24:16.945Z,23.33
2022-10-17T22:26:44.679Z,22.35
2022-10-17T22:29:12.441Z,22.63
2022-10-17T22:31:40.275Z,21.40
2022-10-17T22:34:08.179Z,22.23
2022-10-17T22:36:35.759Z,23.33
2022-10-17T22:39:03.703Z,23.67
2022-10-17T22:41:30.787Z,22.33
2022-10-17T22:43:57.927Z,23.53
2022-10-17T22:46:25.198Z,22.83
2022-10-17T22:48:52.258Z,22.80
2022-10-17T22:51:19.427Z,22.13
2022-10-17T22:53:46.464Z,21.63
2022-10-17T22:56:16.221Z,23.30
2022-10-17T22:58:43.596Z,21.17
